Ingeniero Alberto Acuna Ongay International Airport
MMCP : rendu visible

Aérodrome :











RETROUVEZ-NOUS SUR...

 
LOGIN :

S'inscrire | Disclaimer

   EN    FR    IT 

 









Légende :    VFR   VFR Marginal   IFR   IFR Intensif   IFR Très Intensif
Visi : 
Plafond : 
>= 8 km
>= 3000ft
5 à 8 km
1000 à 3000 ft
1500m à 5 km
500 à 1000 ft
800 à 1500m
200 à 500 ft
< 800m
< 200 ft
Symboles :   Orages  Brouillard  Fortes neiges  Fortes précipitations  Vent > 20 kt






- Altitude de l'aérodrome : 34 ft
- Code IATA : CPE


MMCP - Ingeniero Alberto Acuna Ongay International

DERNIER METAR :
  • 121840Z 12006KT 7SM SCT020 BKN120 28/23 A3006 RMK 8/530

METARs EXPIRÉS :
  • 121745Z 00000KT 7SM BKN020 BKN120 27/23 A3009 RMK SLP178 57008 903 8/530
  • 121645Z 00000KT 6SM SCT020 BKN120 26/23 A3012 RMK 8/530 HZY

TAF TAF MMCP
Valide du 12 à 18h jusqu'au 13 à 18h UTC


121650Z 1218/1318 03010KT P6SM BKN020 BKN070
TEMPO 1220/1224 3SM RA
FM130300 08010KT P6SM SCT010 BKN070
FM131600 13010KT P6SM BKN010 BKN060



MET'MAP, la Météo Aéronautique d'un coup d'oeil ! - Copyright ORBIFLY Décembre 2007 - Disclaimer

ORBIFLY MET'MAP TEAM :

Programmation & Développement : Alexandra Zaïnal
Sur une idée originale de : Baudouin d'Aumeries
Assistance à la programmation : Marc-Olivier Méhu
Soutien technique & logistique : Manuel Goepfert

Contact : metmap@orbifly.com




SOURCES & CREDITS :

   NOAA       Earth
Advisory